Time;durP1;ratioP1;P1;durP2;ratioP2;P2;SDS_P1;SDS_P2;PMS_P1;PMS_P2;Temp;Humidity;BMP_temperature;BMP_pressure;BME280_temperature;BME280_humidity;BME280_pressure;Samples;Min_cycle;Max_cycle;Signal;HPM_P1;HPM_P2
2022/05/20 00:01:15;;;;;;;10.48;5.80;;;;;;;7.63;76.98;98623.13;1734858;80;20901;-80
2022/05/20 00:03:41;;;;;;;13.93;7.00;;;;;;;7.61;77.69;98613.94;1742998;81;20993;-80
2022/05/20 00:06:07;;;;;;;10.48;6.50;;;;;;;7.58;77.25;98617.64;1711170;82;21508;-80
2022/05/20 00:08:33;;;;;;;11.30;6.55;;;;;;;7.51;78.71;98615.09;1707912;80;21054;-85
2022/05/20 00:10:59;;;;;;;15.28;6.67;;;;;;;7.44;78.54;98615.00;1743246;82;21132;-80
2022/05/20 00:13:27;;;;;;;12.93;6.22;;;;;;;7.36;79.36;98610.83;1742706;81;20878;-84
2022/05/20 00:15:53;;;;;;;10.50;6.12;;;;;;;7.38;76.44;98618.13;1743022;82;21533;-81
2022/05/20 00:18:19;;;;;;;13.90;6.62;;;;;;;7.33;76.18;98608.06;1742138;81;21009;-84
2022/05/20 00:20:45;;;;;;;10.48;6.42;;;;;;;7.29;75.65;98603.42;1711233;82;20978;-85
2022/05/20 00:23:11;;;;;;;15.03;6.15;;;;;;;7.27;76.80;98610.41;1711110;83;21086;-80
2022/05/20 00:25:46;;;;;;;11.50;6.35;;;;;;;7.19;79.49;98604.07;1734980;80;20897;-84
2022/05/20 00:28:20;;;;;;;11.00;5.47;;;;;;;7.17;77.93;98600.78;1713274;83;21452;-81
2022/05/20 00:30:50;;;;;;;14.00;6.03;;;;;;;7.12;78.32;98606.09;1710698;82;21070;-80
2022/05/20 00:33:16;;;;;;;13.48;7.35;;;;;;;7.01;78.43;98596.21;1703170;80;21011;-84
2022/05/20 00:35:42;;;;;;;11.10;5.90;;;;;;;6.98;78.53;98602.06;1720316;80;21862;-80
2022/05/20 00:38:08;;;;;;;8.55;4.67;;;;;;;6.91;80.49;98610.82;1742869;81;21060;-84
2022/05/20 00:40:34;;;;;;;11.70;5.95;;;;;;;6.87;80.21;98608.34;1743334;82;21664;-80
2022/05/20 00:43:31;;;;;;;9.48;5.53;;;;;;;6.85;76.89;98606.42;1742970;81;21049;-85
2022/05/20 00:45:57;;;;;;;9.85;5.72;;;;;;;6.81;76.75;98606.06;1741145;82;21021;-85
2022/05/20 00:48:23;;;;;;;6.90;4.85;;;;;;;6.79;78.29;98615.73;1742271;80;21139;-82
2022/05/20 00:50:55;;;;;;;8.05;5.33;;;;;;;6.70;81.56;98613.67;1725850;83;21542;-80
2022/05/20 00:53:22;;;;;;;8.20;5.05;;;;;;;6.75;78.05;98621.83;1696800;82;21020;-84
2022/05/20 00:55:48;;;;;;;10.60;5.37;;;;;;;6.67;76.60;98608.78;1743400;82;21064;-84
2022/05/20 00:58:18;;;;;;;9.68;5.92;;;;;;;6.58;77.34;98595.38;1742935;81;20910;-79
2022/05/20 01:00:48;;;;;;;8.85;5.12;;;;;;;6.50;79.99;98606.84;1729554;82;22143;-84
2022/05/20 01:03:14;;;;;;;9.18;5.40;;;;;;;6.45;80.37;98607.25;1742828;81;21076;-80
2022/05/20 01:05:44;;;;;;;8.03;5.42;;;;;;;6.41;80.64;98610.97;1718606;82;20991;-80
2022/05/20 01:08:13;;;;;;;11.10;5.72;;;;;;;6.40;78.86;98613.34;1702889;84;21042;-84
2022/05/20 01:10:39;;;;;;;;;;;;;;;6.34;79.94;98603.55;1745450;80;21461;-80
2022/05/20 01:13:05;;;;;;;9.95;4.87;;;;;;;6.28;81.26;98596.94;1742881;81;20991;-80
2022/05/20 01:15:31;;;;;;;8.80;5.00;;;;;;;6.26;78.26;98590.46;1766427;80;21063;-79
2022/05/20 01:17:58;;;;;;;9.05;4.42;;;;;;;6.22;79.02;98595.48;1713296;83;20936;-84
2022/05/20 01:20:28;;;;;;;8.13;4.75;;;;;;;6.28;82.25;98594.25;1739580;80;21008;-84
2022/05/20 01:23:10;;;;;;;8.60;4.70;;;;;;;6.35;81.34;98597.63;1742979;81;21029;-84
2022/05/20 01:25:36;;;;;;;9.95;4.60;;;;;;;6.31;81.46;98593.23;1701369;83;21504;-80
2022/05/20 01:28:02;;;;;;;7.72;4.22;;;;;;;6.29;79.92;98587.81;1713350;83;21004;-84
2022/05/20 01:30:29;;;;;;;5.97;3.65;;;;;;;6.24;78.10;98579.12;1729032;80;21031;-84
2022/05/20 01:32:55;;;;;;;8.93;4.15;;;;;;;6.24;80.30;98577.78;1742999;81;21517;-84
2022/05/20 01:35:34;;;;;;;8.88;4.95;;;;;;;6.25;82.09;98581.28;1740399;80;20905;-84
2022/05/20 01:38:00;;;;;;;7.92;4.10;;;;;;;6.22;78.71;98587.94;1713458;82;21552;-80
2022/05/20 01:40:28;;;;;;;7.20;4.20;;;;;;;6.22;78.61;98588.75;1740335;80;20933;-80
2022/05/20 01:43:06;;;;;;;9.50;4.10;;;;;;;6.35;78.83;98600.33;1743004;81;21041;-81
2022/05/20 01:45:40;;;;;;;7.67;4.10;;;;;;;6.41;78.29;98599.34;1718053;80;21462;-84
2022/05/20 01:48:17;;;;;;;8.28;4.40;;;;;;;6.33;82.00;98592.49;1728371;81;21693;-80
2022/05/20 01:50:48;;;;;;;7.00;4.15;;;;;;;6.32;82.09;98597.56;1657590;83;21401;-80
2022/05/20 01:53:17;;;;;;;8.13;4.60;;;;;;;6.28;78.89;98591.56;1681854;84;21058;-85
2022/05/20 01:56:04;;;;;;;12.05;4.55;;;;;;;6.18;81.54;98584.91;1703271;82;21019;-80
2022/05/20 01:58:50;;;;;;;9.25;4.47;;;;;;;6.19;81.94;98592.46;1707005;80;20998;-80
2022/05/20 02:01:24;;;;;;;6.85;3.75;;;;;;;6.19;82.60;98585.73;1714828;82;21086;-84
2022/05/20 02:03:53;;;;;;;7.90;3.80;;;;;;;6.22;80.93;98587.94;1706062;80;21302;-83
2022/05/20 02:06:24;;;;;;;6.75;3.62;;;;;;;6.24;79.63;98584.50;1724010;82;20983;-84
2022/05/20 02:09:04;;;;;;;6.95;3.92;;;;;;;6.24;79.50;98584.50;1709433;80;21471;-84
2022/05/20 02:11:35;;;;;;;7.67;4.55;;;;;;;6.23;82.03;98585.00;1720445;83;20979;-80
2022/05/20 02:14:41;;;;;;;8.90;4.58;;;;;;;6.19;82.48;98581.70;1721541;80;21048;-80
2022/05/20 02:17:13;;;;;;;6.58;3.80;;;;;;;6.18;81.31;98584.91;1743096;81;21005;-84
2022/05/20 02:19:47;;;;;;;7.75;3.37;;;;;;;6.19;80.67;98576.31;1733951;80;21034;-84
2022/05/20 02:22:19;;;;;;;12.80;5.42;;;;;;;6.24;82.08;98581.81;1728355;80;20994;-84
2022/05/20 02:24:46;;;;;;;8.60;4.28;;;;;;;6.25;79.69;98583.97;1734870;80;21005;-80
2022/05/20 02:27:20;;;;;;;5.53;3.87;;;;;;;6.18;79.34;98578.19;1718785;81;21009;-80
2022/05/20 02:29:51;;;;;;;7.60;3.80;;;;;;;6.10;80.34;98577.73;1707132;82;21034;-80
2022/05/20 02:32:34;;;;;;;5.87;4.22;;;;;;;6.10;79.12;98587.16;1725257;80;21011;-80
2022/05/20 02:35:00;;;;;;;6.03;3.80;;;;;;;6.11;81.81;98584.22;1728206;80;21003;-84
2022/05/20 02:37:32;;;;;;;12.45;4.35;;;;;;;6.15;82.10;98592.63;1742208;80;20854;-84
2022/05/20 02:39:59;;;;;;;6.08;3.80;;;;;;;6.18;81.42;98582.75;1721770;80;21059;-80
2022/05/20 02:42:27;;;;;;;7.20;3.72;;;;;;;6.13;81.39;98586.67;1703651;82;21137;-84
2022/05/20 02:44:52;;;;;;;11.85;4.08;;;;;;;6.06;82.29;98589.48;1730225;80;21005;-80
2022/05/20 02:47:19;;;;;;;10.45;3.20;;;;;;;6.07;81.05;98585.77;1743144;81;20941;-80
2022/05/20 02:49:46;;;;;;;6.90;4.58;;;;;;;6.04;80.95;98585.40;1743250;82;21096;-80
2022/05/20 02:52:12;;;;;;;5.15;3.35;;;;;;;6.03;80.38;98575.17;1742860;81;21498;-85
2022/05/20 02:54:38;;;;;;;8.15;3.60;;;;;;;6.06;79.16;98576.03;1734718;80;22030;-84
2022/05/20 02:57:05;;;;;;;7.22;3.25;;;;;;;6.08;80.66;98583.89;1728529;80;20934;-80
2022/05/20 03:05:00;;;;;;;6.62;3.52;;;;;;;6.02;81.59;98579.45;1724941;80;20973;-85
2022/05/20 03:07:26;;;;;;;6.25;4.00;;;;;;;6.00;79.77;98573.49;1703580;82;21211;-80
2022/05/20 03:09:52;;;;;;;7.00;4.10;;;;;;;5.91;82.36;98581.11;1720026;80;20899;-80
2022/05/20 03:12:19;;;;;;;7.37;3.47;;;;;;;5.91;83.03;98578.42;1728559;80;21077;-80
2022/05/20 03:14:44;;;;;;;7.58;3.25;;;;;;;5.91;83.26;98580.58;1737407;80;20989;-80
2022/05/20 03:17:10;;;;;;;6.33;3.08;;;;;;;5.94;80.11;98581.97;1743184;81;20851;-83
2022/05/20 03:19:37;;;;;;;4.65;3.02;;;;;;;5.89;82.63;98588.01;1743228;82;21349;-80
2022/05/20 03:22:04;;;;;;;4.60;3.20;;;;;;;5.90;81.79;98576.75;1720034;82;21073;-80
2022/05/20 03:24:30;;;;;;;8.73;3.12;;;;;;;6.06;80.44;98584.10;1719742;80;21080;-85
2022/05/20 03:26:56;;;;;;;8.93;4.70;;;;;;;6.14;81.75;98578.89;1719719;82;21056;-81
2022/05/20 03:29:22;;;;;;;7.25;2.90;;;;;;;6.20;79.99;98576.06;1713950;82;20974;-85
2022/05/20 03:31:48;;;;;;;5.75;3.77;;;;;;;6.26;80.79;98573.50;1723877;80;21193;-85
2022/05/20 03:34:14;;;;;;;8.15;3.50;;;;;;;6.38;80.61;98578.30;1728184;80;20891;-84
2022/05/20 03:36:43;;;;;;;5.30;2.87;;;;;;;6.41;82.08;98582.70;1727836;80;21575;-85
2022/05/20 03:39:12;;;;;;;;;;;;;;;6.49;81.59;98582.33;1721224;80;21007;-80
2022/05/20 03:41:38;;;;;;;;;;;;;;;6.62;80.33;98590.63;1721232;82;20159;-81
2022/05/20 03:44:05;;;;;;;8.08;2.95;;;;;;;6.71;79.08;98578.95;1723586;80;21036;-80
2022/05/20 03:46:31;;;;;;;5.97;3.58;;;;;;;6.82;78.53;98569.98;1743225;81;21029;-85
2022/05/20 03:48:59;;;;;;;6.58;3.42;;;;;;;6.98;78.48;98578.63;1731544;82;20895;-80
2022/05/20 03:51:25;;;;;;;6.33;3.25;;;;;;;7.18;79.29;98578.19;1715661;80;21363;-80
2022/05/20 03:53:51;;;;;;;5.42;3.00;;;;;;;7.34;78.68;98576.00;1731927;80;21012;-85
2022/05/20 03:56:18;;;;;;;5.37;3.30;;;;;;;7.43;78.55;98571.55;1743322;82;22025;-80
2022/05/20 03:58:43;;;;;;;5.10;3.00;;;;;;;7.54;78.40;98551.25;1742928;81;21021;-84
2022/05/20 04:03:55;;;;;;;11.73;4.90;;;;;;;7.76;77.71;98555.86;1721065;80;21008;-85
2022/05/20 04:06:21;;;;;;;8.23;3.95;;;;;;;7.81;77.92;98555.41;1708478;82;20892;-85
2022/05/20 04:08:47;;;;;;;15.85;4.55;;;;;;;8.06;76.89;98557.64;1712426;80;21308;-85
2022/05/20 04:11:13;;;;;;;7.42;3.40;;;;;;;8.25;76.42;98550.58;1743321;82;20889;-81
2022/05/20 04:13:42;;;;;;;4.15;2.90;;;;;;;8.49;76.15;98553.33;1743082;81;21005;-84
2022/05/20 04:16:09;;;;;;;6.97;4.60;;;;;;;8.66;75.54;98558.11;1725984;81;21484;-80
2022/05/20 04:18:35;;;;;;;6.95;3.90;;;;;;;8.90;74.73;98555.11;1708564;80;21022;-85
2022/05/20 04:21:01;;;;;;;7.67;3.95;;;;;;;9.11;73.96;98562.33;1732937;82;21344;-84
2022/05/20 04:23:27;;;;;;;8.50;4.05;;;;;;;9.36;73.33;98567.67;1714668;80;21494;-85
2022/05/20 04:25:53;;;;;;;9.90;4.17;;;;;;;9.66;72.72;98558.98;1731951;82;21061;-85
2022/05/20 04:28:19;;;;;;;6.53;3.95;;;;;;;9.87;72.33;98548.55;1713197;80;20942;-81
2022/05/20 04:30:45;;;;;;;8.70;4.42;;;;;;;10.10;71.81;98558.16;1717400;80;20895;-81
2022/05/20 04:33:12;;;;;;;9.08;4.85;;;;;;;10.17;70.67;98561.45;1728294;81;21080;-85
2022/05/20 04:35:38;;;;;;;7.55;3.98;;;;;;;10.19;70.97;98563.34;1731379;80;21276;-85
2022/05/20 04:38:04;;;;;;;11.12;5.10;;;;;;;10.34;70.78;98558.03;1743037;81;21433;-86
2022/05/20 04:40:30;;;;;;;10.18;4.17;;;;;;;10.46;70.83;98557.80;1729490;80;21546;-81
2022/05/20 04:48:25;;;;;;;7.00;3.55;;;;;;;11.17;68.57;98548.98;1737141;80;21013;-81
2022/05/20 04:50:51;;;;;;;7.67;3.95;;;;;;;11.17;68.57;98548.98;1718918;82;21098;-85
2022/05/20 04:56:01;;;;;;;10.38;3.95;;;;;;;11.82;68.60;98550.06;1742791;82;21033;-81
2022/05/20 04:58:27;;;;;;;12.82;4.15;;;;;;;12.09;66.37;98556.51;1721384;80;21038;-81
2022/05/20 05:00:56;;;;;;;6.35;3.70;;;;;;;12.33;66.10;98548.55;1710378;82;21085;-80
2022/05/20 05:03:22;;;;;;;8.03;3.45;;;;;;;12.50;66.13;98549.02;1705345;80;21026;-80
2022/05/20 05:05:48;;;;;;;6.62;3.80;;;;;;;12.74;65.61;98547.81;1719887;82;21017;-81
2022/05/20 05:08:16;;;;;;;12.88;3.50;;;;;;;13.05;65.75;98544.33;1738393;81;20882;-81
2022/05/20 05:10:42;;;;;;;11.05;3.58;;;;;;;13.26;64.88;98533.61;1723679;82;21315;-80
2022/05/20 05:13:09;;;;;;;16.97;4.65;;;;;;;13.35;65.05;98524.83;1716828;82;21067;-85
2022/05/20 05:15:36;;;;;;;6.67;4.25;;;;;;;13.50;63.44;98528.76;1727556;80;21026;-86
2022/05/20 05:18:16;;;;;;;7.05;3.83;;;;;;;13.87;61.12;98523.24;1702881;83;21066;-85
2022/05/20 05:20:46;;;;;;;6.40;3.72;;;;;;;14.18;62.72;98516.33;1728617;80;21038;-80
2022/05/20 05:23:12;;;;;;;4.85;2.75;;;;;;;14.51;62.80;98529.58;1731175;81;21116;-86
2022/05/20 05:25:38;;;;;;;9.33;3.77;;;;;;;14.82;60.35;98525.89;1748274;80;21005;-81
2022/05/20 05:28:05;;;;;;;8.10;3.00;;;;;;;15.14;59.99;98516.14;1728237;81;20930;-86
2022/05/20 05:30:31;;;;;;;9.38;2.98;;;;;;;15.28;60.78;98514.81;1725955;80;21061;-86
2022/05/20 05:32:57;;;;;;;6.85;2.40;;;;;;;15.55;58.87;98512.70;1713300;83;20982;-81
2022/05/20 05:35:24;;;;;;;12.13;2.75;;;;;;;15.80;56.59;98521.84;1739781;80;21155;-86
2022/05/20 05:37:51;;;;;;;7.27;2.83;;;;;;;16.01;55.67;98514.89;1743086;81;21001;-86
2022/05/20 05:40:20;;;;;;;5.60;2.92;;;;;;;16.29;53.25;98505.31;1710992;80;21272;-86
2022/05/20 05:42:46;;;;;;;9.05;2.98;;;;;;;16.49;53.27;98509.01;1728279;81;21082;-81
2022/05/20 05:45:14;;;;;;;14.03;4.00;;;;;;;16.74;52.34;98516.41;1717005;80;21704;-81
2022/05/20 05:47:40;;;;;;;7.93;3.23;;;;;;;17.03;52.82;98522.33;1729237;81;21157;-81
2022/05/20 05:50:07;;;;;;;6.75;3.85;;;;;;;17.28;50.20;98511.89;1720450;82;20898;-86
2022/05/20 05:52:33;;;;;;;11.00;3.40;;;;;;;17.43;50.01;98517.80;1703102;82;21450;-87
2022/05/20 05:55:01;;;;;;;6.25;2.87;;;;;;;17.70;49.43;98527.02;1710591;80;20939;-86
2022/05/20 05:57:28;;;;;;;7.15;2.35;;;;;;;17.91;50.47;98528.08;1721239;81;22061;-81
2022/05/20 05:59:55;;;;;;;9.00;2.87;;;;;;;18.20;49.67;98529.48;1722926;82;21102;-81
2022/05/20 06:02:21;;;;;;;9.58;3.33;;;;;;;18.42;47.44;98532.15;1736029;80;21061;-81
2022/05/20 06:04:49;;;;;;;11.55;3.92;;;;;;;18.54;45.82;98527.41;1740792;82;20901;-86
2022/05/20 06:07:15;;;;;;;6.28;3.22;;;;;;;18.69;44.88;98528.36;1725982;81;21030;-82
2022/05/20 06:09:41;;;;;;;9.53;3.10;;;;;;;18.87;45.03;98533.31;1728318;80;20907;-81
2022/05/20 06:12:08;;;;;;;6.67;3.12;;;;;;;19.08;44.89;98531.56;1739025;82;21831;-82
2022/05/20 06:14:34;;;;;;;6.00;2.77;;;;;;;19.34;44.52;98530.17;1730178;80;21028;-81
2022/05/20 06:17:00;;;;;;;6.47;3.90;;;;;;;19.57;43.44;98528.08;1706280;82;20986;-87
2022/05/20 06:19:25;;;;;;;6.00;2.92;;;;;;;19.72;44.13;98530.86;1731958;80;20978;-81
2022/05/20 06:21:51;;;;;;;6.92;2.95;;;;;;;19.94;42.72;98532.59;1719795;80;20894;-82
2022/05/20 06:24:17;;;;;;;8.90;3.35;;;;;;;20.09;43.09;98527.12;1735734;80;21297;-81
2022/05/20 06:26:43;;;;;;;5.20;3.12;;;;;;;20.21;42.97;98534.09;1724887;80;20910;-81
2022/05/20 06:29:10;;;;;;;9.35;3.00;;;;;;;20.34;41.90;98527.58;1726177;80;20890;-81
2022/05/20 06:31:36;;;;;;;6.95;3.70;;;;;;;20.46;42.21;98532.39;1732861;80;21112;-81
2022/05/20 06:34:02;;;;;;;17.57;3.75;;;;;;;20.70;41.75;98524.31;1721717;80;21077;-82
2022/05/20 06:41:56;;;;;;;6.97;2.80;;;;;;;21.45;40.00;98520.81;1726782;81;21039;-82
2022/05/20 06:44:22;;;;;;;4.35;2.30;;;;;;;21.85;38.75;98514.16;1725808;80;22229;-81
2022/05/20 06:46:48;;;;;;;7.12;3.15;;;;;;;22.27;38.26;98516.77;1727213;80;21045;-82
2022/05/20 06:49:14;;;;;;;9.10;2.52;;;;;;;22.71;36.84;98521.34;1729294;80;21273;-82
2022/05/20 06:51:40;;;;;;;3.37;1.90;;;;;;;22.96;35.40;98514.42;1721004;80;21091;-82
2022/05/20 06:54:08;;;;;;;6.10;1.82;;;;;;;23.15;35.50;98527.60;1727367;80;20899;-81
2022/05/20 06:56:34;;;;;;;8.20;1.80;;;;;;;23.23;34.74;98526.08;1729327;80;21092;-82
2022/05/20 06:59:01;;;;;;;5.35;2.62;;;;;;;23.43;32.78;98527.64;1717138;80;21456;-81
2022/05/20 07:01:28;;;;;;;8.73;1.95;;;;;;;23.42;33.50;98530.19;1735055;80;21130;-82
2022/05/20 07:03:53;;;;;;;7.08;2.27;;;;;;;23.46;33.40;98522.78;1723337;80;21137;-82
2022/05/20 07:06:20;;;;;;;5.62;2.33;;;;;;;23.43;32.23;98522.91;1728340;81;20953;-82
2022/05/20 07:08:49;;;;;;;7.53;2.02;;;;;;;23.53;32.98;98531.28;1722569;80;21063;-82
2022/05/20 07:11:19;;;;;;;4.05;1.90;;;;;;;23.82;32.39;98536.45;1726919;80;21122;-82
2022/05/20 07:13:45;;;;;;;13.93;2.22;;;;;;;23.89;32.17;98534.45;1702969;81;21794;-82
2022/05/20 07:16:11;;;;;;;5.08;2.17;;;;;;;24.01;32.62;98523.88;1717783;80;21041;-82
2022/05/20 07:18:37;;;;;;;3.33;1.77;;;;;;;24.16;32.19;98536.34;1733316;80;21536;-82
2022/05/20 07:21:04;;;;;;;3.95;2.02;;;;;;;24.29;31.52;98527.96;1724476;80;20886;-82
2022/05/20 07:23:31;;;;;;;6.12;2.10;;;;;;;24.37;31.65;98538.89;1735087;80;21112;-82
2022/05/20 07:25:57;;;;;;;6.20;2.30;;;;;;;24.21;32.40;98540.83;1736897;80;21094;-82
2022/05/20 07:28:23;;;;;;;4.15;2.08;;;;;;;24.41;32.10;98543.92;1723426;80;20903;-82
2022/05/20 07:30:50;;;;;;;3.33;1.80;;;;;;;24.89;32.28;98546.63;1723750;80;21009;-82
2022/05/20 07:33:16;;;;;;;6.12;1.60;;;;;;;25.43;31.48;98534.73;1719310;80;21162;-82
2022/05/20 07:35:42;;;;;;;7.37;1.70;;;;;;;25.79;31.07;98533.48;1719254;81;20891;-82
2022/05/20 07:38:08;;;;;;;5.37;2.45;;;;;;;26.27;30.59;98529.19;1713142;80;21964;-82
2022/05/20 07:40:34;;;;;;;5.58;1.57;;;;;;;26.64;30.78;98528.02;1711351;81;20958;-82
2022/05/20 07:43:00;;;;;;;8.88;2.85;;;;;;;26.63;31.03;98533.95;1714006;81;21478;-81
2022/05/20 07:45:25;;;;;;;5.53;1.82;;;;;;;26.97;30.20;98538.42;1733544;81;20960;-82
2022/05/20 07:47:51;;;;;;;5.75;1.62;;;;;;;27.16;29.13;98524.20;1714143;80;20930;-82
2022/05/20 07:50:17;;;;;;;3.45;1.70;;;;;;;26.95;29.91;98531.65;1730629;80;21462;-82
2022/05/20 07:55:33;;;;;;;4.15;1.60;;;;;;;27.81;28.49;98539.13;1719531;81;34966;-88
2022/05/20 07:57:59;;;;;;;33.18;9.43;;;;;;;27.57;28.39;98534.84;1721532;80;21699;-86
2022/05/20 08:00:25;;;;;;;3.80;1.80;;;;;;;27.20;29.05;98535.59;1712390;80;21600;-86
2022/05/20 08:02:51;;;;;;;5.47;1.80;;;;;;;26.75;29.09;98532.92;1726409;80;21092;-87
2022/05/20 08:05:21;;;;;;;6.87;1.92;;;;;;;26.38;29.68;98539.91;1717585;80;21604;-87
2022/05/20 08:07:47;;;;;;;7.42;2.02;;;;;;;26.13;30.42;98538.06;1718837;82;20997;-87
2022/05/20 08:10:18;;;;;;;3.47;2.10;;;;;;;25.96;30.72;98539.94;1715591;80;21450;-82
2022/05/20 08:12:44;;;;;;;4.42;3.02;;;;;;;25.84;31.37;98538.73;1735372;80;21139;-82
2022/05/20 08:15:10;;;;;;;3.00;2.35;;;;;;;25.71;31.51;98538.09;1717738;80;21097;-87
2022/05/20 08:17:40;;;;;;;9.70;3.47;;;;;;;25.50;32.08;98543.20;1729904;81;21071;-82
2022/05/20 08:20:07;;;;;;;4.65;1.90;;;;;;;25.28;32.57;98545.52;1739728;80;21521;-82
2022/05/20 08:22:33;;;;;;;5.47;2.02;;;;;;;25.23;32.10;98541.67;1745667;80;22990;-87
2022/05/20 08:24:59;;;;;;;2.62;1.70;;;;;;;24.90;32.21;98546.84;1731901;80;20906;-87
2022/05/20 08:27:27;;;;;;;8.98;2.47;;;;;;;24.76;32.40;98539.00;1740980;80;21180;-87
2022/05/20 08:29:53;;;;;;;3.50;2.12;;;;;;;24.71;32.61;98542.06;1740619;80;21611;-86
2022/05/20 08:32:19;;;;;;;5.53;2.00;;;;;;;24.70;32.78;98541.27;1720217;80;21172;-87
2022/05/20 08:34:46;;;;;;;28.32;2.40;;;;;;;24.69;32.97;98549.91;1722776;80;21086;-87
2022/05/20 08:37:13;;;;;;;4.35;2.50;;;;;;;24.73;33.02;98557.73;1726540;80;21003;-88
2022/05/20 08:39:39;;;;;;;14.33;3.00;;;;;;;24.59;33.15;98556.81;1730527;80;21125;-87
2022/05/20 08:42:17;;;;;;;7.45;2.87;;;;;;;24.54;33.10;98550.77;1729857;80;20898;-87
2022/05/20 08:44:43;;;;;;;7.05;2.75;;;;;;;24.31;33.13;98556.09;1721540;80;21044;-86
2022/05/20 08:47:25;;;;;;;7.75;2.35;;;;;;;24.38;33.09;98555.72;1720199;81;20985;-88
2022/05/20 08:49:51;;;;;;;5.53;2.45;;;;;;;24.66;32.98;98551.44;1733090;80;21268;-87
2022/05/20 08:52:17;;;;;;;6.95;2.87;;;;;;;25.20;32.29;98544.34;1737845;80;21275;-86
2022/05/20 08:54:43;;;;;;;4.67;2.27;;;;;;;26.23;30.63;98551.91;1719293;80;21148;-87
2022/05/20 08:57:19;;;;;;;6.28;2.02;;;;;;;27.45;30.20;98543.46;1729954;80;20910;-87
2022/05/20 08:59:45;;;;;;;19.37;17.77;;;;;;;28.40;28.56;98541.50;1704755;81;21450;-87
2022/05/20 09:02:11;;;;;;;10.53;4.45;;;;;;;28.75;28.57;98540.17;1726943;80;21437;-87
2022/05/20 09:04:37;;;;;;;8.45;2.70;;;;;;;29.13;27.46;98538.83;1731524;80;21154;-87
2022/05/20 09:07:08;;;;;;;6.97;2.52;;;;;;;28.97;27.05;98537.77;1720556;81;20949;-87
2022/05/20 09:09:50;;;;;;;4.20;2.08;;;;;;;28.04;27.69;98534.20;1721165;80;21099;-88
2022/05/20 09:12:36;;;;;;;6.47;2.20;;;;;;;27.42;28.55;98533.87;1727888;80;21053;-87
2022/05/20 09:18:11;;;;;;;9.00;2.27;;;;;;;26.27;29.89;98535.33;1726746;80;21304;-86
2022/05/20 09:20:44;;;;;;;6.25;1.82;;;;;;;25.83;30.52;98528.22;1736785;80;20978;-87
2022/05/20 09:23:11;;;;;;;3.75;1.70;;;;;;;25.63;31.37;98523.02;1721667;80;21048;-86
2022/05/20 09:25:46;;;;;;;6.40;2.58;;;;;;;25.82;31.38;98524.44;1712747;80;21064;-87
2022/05/20 09:28:38;;;;;;;8.20;2.20;;;;;;;26.11;31.37;98511.26;1717789;80;21136;-86
2022/05/20 09:31:26;;;;;;;8.10;3.50;;;;;;;26.21;31.28;98510.42;1708768;80;21094;-87
2022/05/20 09:34:09;;;;;;;8.95;2.08;;;;;;;27.25;30.43;98505.23;1719627;80;21156;-86
2022/05/20 09:36:51;;;;;;;4.62;2.72;;;;;;;29.19;28.42;98495.42;1682338;83;21097;-87
2022/05/20 09:39:21;;;;;;;10.30;2.10;;;;;;;29.99;27.46;98486.88;1675993;83;21068;-87
2022/05/20 09:41:52;;;;;;;9.63;2.50;;;;;;;31.07;27.04;98489.20;1724035;80;20995;-88
2022/05/20 09:44:20;;;;;;;7.33;3.02;;;;;;;32.28;25.54;98489.92;1710029;81;21894;-87
2022/05/20 09:46:57;;;;;;;3.87;2.80;;;;;;;33.63;24.06;98482.70;1721420;80;21122;-87
2022/05/20 09:49:37;;;;;;;5.22;2.22;;;;;;;33.88;24.15;98471.09;1729923;80;21734;-87
2022/05/20 09:52:04;;;;;;;6.90;2.10;;;;;;;33.88;24.15;98471.09;1720113;80;21097;-86
2022/05/20 09:54:36;;;;;;;7.22;2.35;;;;;;;32.67;24.98;98473.99;1694076;80;21123;-87
2022/05/20 09:57:13;;;;;;;3.20;2.00;;;;;;;32.39;24.32;98475.88;1719927;82;21293;-89
2022/05/20 09:59:57;;;;;;;;;;;;;;;33.43;23.84;98467.74;1728570;80;21461;-88
2022/05/20 10:02:49;;;;;;;4.65;3.27;;;;;;;35.20;21.87;98454.70;1730069;80;20250;-88
2022/05/20 10:05:28;;;;;;;4.45;2.20;;;;;;;34.85;22.46;98455.58;1727759;80;20997;-89
2022/05/20 10:08:22;;;;;;;5.28;2.05;;;;;;;35.44;22.35;98459.04;1724844;81;22453;-89
2022/05/20 10:11:14;;;;;;;12.33;2.10;;;;;;;35.24;21.94;98449.19;1728261;80;21159;-90
2022/05/20 10:14:01;;;;;;;13.03;2.85;;;;;;;35.72;21.78;98438.48;1719862;80;20985;-90
2022/05/20 10:16:56;;;;;;;9.63;1.95;;;;;;;36.77;21.14;98428.41;1726485;80;21575;-89
2022/05/20 10:19:49;;;;;;;10.55;2.65;;;;;;;37.89;20.05;98428.30;1727142;80;21127;-89
2022/05/20 10:22:47;;;;;;;6.45;2.52;;;;;;;38.54;19.49;98419.25;1726006;80;21165;-91
2022/05/20 10:25:48;;;;;;;4.30;1.65;;;;;;;37.70;18.63;98422.25;1724460;80;21143;-91
2022/05/20 10:34:35;;;;;;;6.92;3.60;;;;;;;36.46;20.30;98414.72;1735721;80;20990;-89
2022/05/20 10:37:05;;;;;;;8.43;2.10;;;;;;;37.61;20.04;98411.62;1722542;80;21032;-90
2022/05/20 10:40:06;;;;;;;3.70;2.37;;;;;;;38.43;19.06;98406.70;1722534;81;21056;-90
2022/05/20 10:43:11;;;;;;;4.33;1.90;;;;;;;39.18;18.51;98402.76;1722695;80;21524;-91
2022/05/20 10:48:54;;;;;;;5.70;1.77;;;;;;;40.13;16.41;98402.22;1682844;82;21099;-90
2022/05/20 10:51:51;;;;;;;7.92;3.75;;;;;;;39.98;16.70;98396.95;1732553;80;21474;-90
2022/05/20 10:54:47;;;;;;;6.95;3.30;;;;;;;40.11;17.09;98397.65;1724170;80;21033;-91
2022/05/20 10:57:47;;;;;;;3.45;2.20;;;;;;;39.58;17.93;98392.13;1731840;80;21092;-89
2022/05/20 11:00:25;;;;;;;3.20;1.67;;;;;;;39.89;17.04;98387.79;1732125;80;21041;-88
2022/05/20 11:03:38;;;;;;;5.22;1.52;;;;;;;40.46;16.66;98384.63;1734039;80;20985;-89
2022/05/20 11:06:22;;;;;;;3.75;1.65;;;;;;;40.95;15.85;98383.67;1734404;80;21041;-91
2022/05/20 11:08:57;;;;;;;8.08;1.72;;;;;;;40.62;15.51;98374.37;1702685;81;22127;-90
2022/05/20 11:11:37;;;;;;;10.72;1.40;;;;;;;40.47;16.00;98379.09;1723072;80;21100;-90
2022/05/20 11:14:33;;;;;;;3.75;1.67;;;;;;;41.09;15.16;98375.25;1736225;80;21068;-92
2022/05/20 11:17:37;;;;;;;5.67;2.40;;;;;;;40.68;15.86;98371.05;1728351;80;21766;-91
2022/05/20 11:20:25;;;;;;;3.08;1.30;;;;;;;41.15;15.56;98371.92;1672203;82;20993;-90
2022/05/20 11:23:14;;;;;;;3.17;1.22;;;;;;;41.04;15.02;98360.28;1708950;80;21060;-91
2022/05/20 11:26:00;;;;;;;8.83;2.20;;;;;;;40.45;15.48;98362.55;1725790;82;21099;-92
2022/05/20 11:28:38;;;;;;;7.90;1.50;;;;;;;40.18;15.67;98354.00;1736618;80;21839;-90
2022/05/20 11:31:18;;;;;;;3.45;1.45;;;;;;;40.42;15.57;98360.61;1727193;80;21095;-92
2022/05/20 11:34:09;;;;;;;2.83;1.45;;;;;;;40.33;15.47;98353.52;1740123;80;21135;-91
2022/05/20 11:37:15;;;;;;;4.40;1.52;;;;;;;40.31;15.76;98346.11;1720276;81;21112;-91
2022/05/20 11:39:55;;;;;;;8.67;1.60;;;;;;;40.43;15.67;98346.59;1716179;80;21527;-91
2022/05/20 11:42:56;;;;;;;2.25;1.35;;;;;;;40.52;15.59;98331.64;1723028;80;21052;-91
2022/05/20 11:46:00;;;;;;;6.10;1.65;;;;;;;40.39;15.47;98333.81;1726121;80;20984;-91
2022/05/20 11:48:49;;;;;;;3.60;1.40;;;;;;;40.25;15.33;98330.96;1717645;81;21045;-91
2022/05/20 11:51:38;;;;;;;2.75;1.20;;;;;;;38.83;16.81;98334.70;1708775;82;21171;-89
2022/05/20 11:54:22;;;;;;;6.22;1.67;;;;;;;39.73;16.36;98326.46;1724177;80;21010;-90
2022/05/20 11:56:59;;;;;;;6.92;1.77;;;;;;;38.92;17.53;98329.88;1727613;80;21511;-91
2022/05/20 11:59:41;;;;;;;2.12;1.27;;;;;;;39.34;16.53;98330.11;1688041;82;21064;-92
2022/05/20 12:02:12;;;;;;;2.90;1.90;;;;;;;39.06;17.21;98329.97;1713552;80;21749;-92
2022/05/20 12:04:38;;;;;;;2.67;1.60;;;;;;;37.55;17.95;98330.05;1709686;80;22341;-92
2022/05/20 12:07:08;;;;;;;3.52;1.27;;;;;;;37.99;17.77;98328.80;1714525;80;21029;-91
2022/05/20 12:09:38;;;;;;;3.30;1.52;;;;;;;38.88;16.82;98328.42;1719926;82;21133;-92
2022/05/20 12:12:30;;;;;;;3.37;1.62;;;;;;;39.10;17.03;98335.48;1695335;82;21053;-92
2022/05/20 12:15:16;;;;;;;1.32;1.02;;;;;;;39.50;16.00;98329.86;1712186;80;21656;-92
2022/05/20 12:17:50;;;;;;;5.37;1.75;;;;;;;38.17;17.63;98324.72;1713633;80;21135;-89
2022/05/20 12:26:23;;;;;;;2.77;1.42;;;;;;;39.90;16.76;98326.18;1727897;80;21430;-91
2022/05/20 12:28:49;;;;;;;3.65;1.65;;;;;;;40.27;16.66;98322.79;1726512;80;21256;-93
2022/05/20 12:31:24;;;;;;;9.13;3.75;;;;;;;40.86;15.64;98321.95;1726646;80;27207;-91
2022/05/20 12:34:10;;;;;;;3.10;1.17;;;;;;;40.62;16.46;98319.63;1722516;80;23243;-90
2022/05/20 12:36:41;;;;;;;3.10;1.50;;;;;;;40.79;16.03;98314.55;1718337;80;21791;-91
2022/05/20 12:39:13;;;;;;;2.00;1.20;;;;;;;40.84;16.15;98312.47;1722166;80;21041;-93
2022/05/20 12:41:50;;;;;;;1.87;1.00;;;;;;;40.78;15.96;98310.77;1710831;80;21498;-92